Time;durP1;ratioP1;P1;durP2;ratioP2;P2;SDS_P1;SDS_P2;PMS_P1;PMS_P2;Temp;Humidity;BMP_temperature;BMP_pressure;BME280_temperature;BME280_humidity;BME280_pressure;Samples;Min_cycle;Max_cycle;Signal;HPM_P1;HPM_P2
2024/03/09 00:00:28;;;;;;;38.25;14.52;;;;;;;5.28;73.26;98683.19;5077248;28;20048;-43
2024/03/09 00:02:58;;;;;;;35.58;14.82;;;;;;;5.30;73.33;98685.75;5095756;28;20052;-41
2024/03/09 00:05:25;;;;;;;32.53;14.32;;;;;;;5.27;74.33;98685.78;5076514;28;20044;-49
2024/03/09 00:07:54;;;;;;;37.00;15.18;;;;;;;5.29;74.49;98678.91;5079594;28;20087;-48
2024/03/09 00:10:23;;;;;;;47.25;17.83;;;;;;;5.31;74.49;98677.22;5078440;28;20060;-43
2024/03/09 00:12:51;;;;;;;36.35;14.23;;;;;;;5.33;74.48;98672.91;5079274;28;20068;-45
2024/03/09 00:15:19;;;;;;;32.90;14.98;;;;;;;5.34;74.31;98671.19;5077220;28;20052;-46
2024/03/09 00:17:47;;;;;;;34.22;14.73;;;;;;;5.37;74.62;98672.03;5074904;28;20056;-45
2024/03/09 00:20:19;;;;;;;38.60;15.10;;;;;;;5.39;73.58;98657.50;5093658;28;20059;-42
2024/03/09 00:22:46;;;;;;;29.85;13.40;;;;;;;5.35;74.47;98663.50;5074303;28;20053;-44
2024/03/09 00:25:13;;;;;;;38.50;14.35;;;;;;;5.38;74.36;98658.31;5078529;28;20052;-43
2024/03/09 00:27:41;;;;;;;42.80;15.68;;;;;;;5.40;74.53;98656.63;5081119;28;20527;-46
2024/03/09 00:30:13;;;;;;;41.17;15.43;;;;;;;5.43;73.43;98654.91;5086911;28;20505;-43
2024/03/09 00:32:40;;;;;;;36.00;12.27;;;;;;;5.43;73.62;98652.34;5082354;28;20507;-42
2024/03/09 00:35:08;;;;;;;26.58;12.68;;;;;;;5.43;74.24;98649.78;5080161;28;20051;-46
2024/03/09 00:37:36;;;;;;;37.65;14.68;;;;;;;5.45;73.41;98641.19;5077606;28;20040;-42
2024/03/09 00:40:04;;;;;;;35.40;14.20;;;;;;;5.48;73.86;98642.91;5068189;28;20587;-45
2024/03/09 00:42:32;;;;;;;48.55;16.33;;;;;;;5.50;73.19;98646.28;5065377;28;20055;-45
2024/03/09 00:45:02;;;;;;;30.20;14.30;;;;;;;5.49;74.26;98647.16;5061379;28;20056;-49
2024/03/09 00:47:30;;;;;;;39.85;14.82;;;;;;;5.51;73.45;98637.75;5070393;28;20509;-48
2024/03/09 00:49:57;;;;;;;40.72;15.77;;;;;;;5.50;74.12;98630.88;5081159;28;20048;-45
2024/03/09 00:52:25;;;;;;;34.05;14.63;;;;;;;5.50;73.15;98630.88;5068886;28;20083;-43
2024/03/09 00:54:53;;;;;;;41.55;15.57;;;;;;;5.51;73.68;98620.59;5072000;28;20109;-46
2024/03/09 00:57:20;;;;;;;35.33;14.55;;;;;;;5.50;73.38;98620.63;5067970;28;20063;-42
2024/03/09 00:59:48;;;;;;;33.35;13.27;;;;;;;5.52;73.89;98603.50;5067984;28;20052;-46
2024/03/09 01:02:16;;;;;;;38.35;12.20;;;;;;;5.51;73.49;98606.94;5063852;28;20507;-41
2024/03/09 01:04:43;;;;;;;39.28;15.10;;;;;;;5.53;73.20;98610.31;5064316;28;20057;-46
2024/03/09 01:07:10;;;;;;;39.05;14.38;;;;;;;5.52;73.68;98598.34;5062023;28;20041;-43
2024/03/09 01:09:37;;;;;;;35.53;13.90;;;;;;;5.53;73.09;98605.19;5065451;28;20060;-44
2024/03/09 01:12:05;;;;;;;39.63;16.40;;;;;;;5.55;73.95;98595.78;5057492;28;20052;-46
2024/03/09 01:14:32;;;;;;;32.67;13.82;;;;;;;5.53;72.92;98594.91;5061084;28;20048;-43
2024/03/09 01:16:59;;;;;;;36.28;15.70;;;;;;;5.54;73.34;98596.63;5063622;28;20408;-43
2024/03/09 01:19:26;;;;;;;40.05;15.98;;;;;;;5.51;74.44;98592.34;5060024;28;20171;-41
2024/03/09 01:21:59;;;;;;;35.10;13.88;;;;;;;5.52;74.61;98588.09;5064961;28;20111;-45
2024/03/09 01:24:26;;;;;;;41.42;15.38;;;;;;;5.56;73.85;98583.75;5064999;28;20136;-49
2024/03/09 01:26:53;;;;;;;31.48;13.25;;;;;;;5.53;73.97;98576.94;5065343;28;20121;-44
2024/03/09 01:29:20;;;;;;;35.58;12.65;;;;;;;5.55;73.37;98564.09;5058530;28;20045;-44
2024/03/09 01:31:47;;;;;;;40.33;14.10;;;;;;;5.52;74.49;98562.41;5055513;28;20060;-49
2024/03/09 01:34:15;;;;;;;43.67;15.60;;;;;;;5.52;73.75;98558.13;5067294;28;20119;-43
2024/03/09 01:36:43;;;;;;;33.80;13.98;;;;;;;5.54;73.34;98555.53;5066717;28;20048;-45
2024/03/09 01:39:10;;;;;;;33.05;13.65;;;;;;;5.52;74.34;98545.28;5064705;28;20048;-45
2024/03/09 01:41:37;;;;;;;36.05;15.27;;;;;;;5.51;73.94;98545.28;5060349;28;20052;-47
2024/03/09 01:44:03;;;;;;;30.10;12.95;;;;;;;5.51;73.62;98535.03;5064787;28;20052;-40
2024/03/09 01:46:30;;;;;;;39.42;15.18;;;;;;;5.52;73.38;98534.16;5065056;28;20052;-45
2024/03/09 01:48:57;;;;;;;42.47;15.65;;;;;;;5.53;74.38;98533.28;5063320;28;20049;-43
2024/03/09 01:51:24;;;;;;;41.58;15.55;;;;;;;5.48;74.33;98528.19;5059987;28;21574;-40
2024/03/09 01:53:53;;;;;;;40.30;16.13;;;;;;;5.49;73.54;98516.19;5067296;28;20523;-47
2024/03/09 01:56:22;;;;;;;36.63;15.27;;;;;;;5.47;74.20;98502.53;5064486;28;20048;-47
2024/03/09 01:58:49;;;;;;;35.90;13.20;;;;;;;5.46;74.49;98503.34;5059928;28;20758;-44
2024/03/09 02:01:24;;;;;;;37.42;13.38;;;;;;;5.44;74.47;98502.53;5063430;28;20052;-44
2024/03/09 02:03:54;;;;;;;27.38;11.90;;;;;;;5.40;74.06;98501.69;5062607;28;20101;-46
2024/03/09 02:06:27;;;;;;;37.50;14.75;;;;;;;5.37;74.00;98492.28;5061284;28;20040;-45
2024/03/09 02:08:56;;;;;;;31.48;14.25;;;;;;;5.36;73.55;98495.72;5058004;28;20051;-45
2024/03/09 02:11:23;;;;;;;34.30;14.85;;;;;;;5.32;74.21;98490.63;5062728;28;20056;-44
2024/03/09 02:13:51;;;;;;;41.63;15.20;;;;;;;5.31;73.64;98482.09;5065028;28;20155;-44
2024/03/09 02:16:19;;;;;;;35.85;15.23;;;;;;;5.27;74.78;98485.53;5052522;28;20553;-46
2024/03/09 02:18:48;;;;;;;32.25;13.57;;;;;;;5.24;74.54;98472.72;5067852;28;20198;-46
2024/03/09 02:21:16;;;;;;;40.00;14.85;;;;;;;5.21;74.97;98470.16;5067638;28;20059;-42
2024/03/09 02:23:47;;;;;;;39.92;14.68;;;;;;;5.18;74.87;98459.91;5066395;28;20136;-42
2024/03/09 02:26:15;;;;;;;41.83;16.63;;;;;;;5.18;73.99;98454.78;5067281;28;20055;-43
2024/03/09 02:28:58;;;;;;;34.65;13.65;;;;;;;5.11;74.47;98449.69;5064809;28;20398;-49
2024/03/09 02:31:26;;;;;;;45.50;17.25;;;;;;;5.11;74.42;98449.69;5066612;28;20128;-45
2024/03/09 02:33:55;;;;;;;37.50;12.60;;;;;;;5.07;75.07;98453.13;5060722;28;21736;-48
2024/03/09 02:39:02;;;;;;;37.25;12.45;;;;;;;4.99;75.51;98449.75;5047615;27;20765;-42
2024/03/09 02:41:29;;;;;;;28.85;10.85;;;;;;;5.00;74.36;98443.78;5004803;28;20045;-42
2024/03/09 02:43:55;;;;;;;46.30;14.75;;;;;;;4.96;74.70;98442.09;4995904;28;20050;-43
2024/03/09 02:46:25;;;;;;;37.95;13.43;;;;;;;4.96;74.87;98434.41;4995710;28;20054;-45
2024/03/09 02:48:54;;;;;;;37.72;13.25;;;;;;;4.94;74.51;98426.69;5000024;28;20056;-46
2024/03/09 02:51:22;;;;;;;38.05;13.07;;;;;;;4.94;74.82;98425.84;4997748;28;20077;-44
2024/03/09 02:53:50;;;;;;;42.55;14.20;;;;;;;4.95;74.89;98414.72;5001373;28;20065;-49
2024/03/09 02:56:19;;;;;;;37.67;14.93;;;;;;;4.97;74.45;98423.25;5004106;28;20801;-49
2024/03/09 02:58:46;;;;;;;41.17;12.85;;;;;;;4.95;74.88;98418.13;5003579;28;20740;-45
2024/03/09 03:01:14;;;;;;;32.63;12.38;;;;;;;4.96;75.80;98414.69;5001100;28;20320;-45
2024/03/09 03:06:28;;;;;;;25.65;10.15;;;;;;;4.98;75.87;98419.81;4977803;28;20496;-45
2024/03/09 03:08:59;;;;;;;37.58;12.82;;;;;;;5.01;75.77;98417.25;5001649;28;20061;-43
2024/03/09 03:11:27;;;;;;;35.08;12.25;;;;;;;5.02;75.30;98408.69;4997714;28;20538;-45
2024/03/09 03:13:55;;;;;;;39.42;13.23;;;;;;;5.01;75.78;98406.97;5002960;28;20058;-47
2024/03/09 03:16:28;;;;;;;29.63;12.30;;;;;;;5.06;75.89;98397.53;4996763;28;20078;-44
2024/03/09 03:18:57;;;;;;;43.63;14.07;;;;;;;5.06;75.66;98394.97;4998172;28;20535;-48
2024/03/09 03:21:25;;;;;;;32.00;11.20;;;;;;;5.04;76.65;98398.41;4998929;28;20486;-44
2024/03/09 03:23:53;;;;;;;43.45;13.63;;;;;;;5.08;75.65;98393.25;4997453;28;20065;-45
2024/03/09 03:26:20;;;;;;;32.88;11.77;;;;;;;5.08;76.01;98385.56;5002175;28;20053;-44
2024/03/09 03:28:49;;;;;;;37.90;14.40;;;;;;;5.09;75.92;98389.81;4999978;28;20046;-45
2024/03/09 03:31:18;;;;;;;45.95;14.15;;;;;;;5.10;76.27;98391.50;4997365;28;20062;-47
2024/03/09 03:33:46;;;;;;;35.38;11.93;;;;;;;5.13;76.02;98390.63;4998111;28;20057;-43
2024/03/09 03:36:17;;;;;;;23.98;8.68;;;;;;;5.08;75.76;98382.13;5000070;28;20415;-46
2024/03/09 03:38:46;;;;;;;35.95;12.25;;;;;;;5.10;76.47;98378.69;5000189;28;20133;-43
2024/03/09 03:41:15;;;;;;;45.50;14.10;;;;;;;5.10;75.53;98376.09;4998305;28;20104;-46
2024/03/09 03:43:42;;;;;;;36.20;12.95;;;;;;;5.09;75.75;98371.84;4998283;28;20562;-44
2024/03/09 03:46:11;;;;;;;46.13;13.43;;;;;;;5.09;75.36;98364.16;4996663;28;20069;-45
2024/03/09 03:48:40;;;;;;;34.55;12.68;;;;;;;5.05;75.79;98362.47;4995813;28;20046;-46
2024/03/09 03:51:07;;;;;;;42.20;13.07;;;;;;;5.07;75.88;98360.72;4987197;28;20593;-50
2024/03/09 03:53:35;;;;;;;44.70;15.00;;;;;;;5.08;75.44;98362.44;4988278;28;20054;-45
2024/03/09 03:56:02;;;;;;;35.53;11.38;;;;;;;5.03;76.29;98359.06;4986050;28;20069;-43
2024/03/09 03:58:29;;;;;;;39.45;13.20;;;;;;;5.07;76.22;98365.84;4985427;28;20147;-45
2024/03/09 04:00:56;;;;;;;32.15;12.50;;;;;;;5.05;76.31;98361.59;4986146;28;20076;-45
2024/03/09 04:03:29;;;;;;;37.88;12.65;;;;;;;5.01;75.96;98355.66;4979670;28;20566;-46
2024/03/09 04:05:56;;;;;;;40.25;13.25;;;;;;;5.04;76.33;98360.78;4988344;28;20764;-46
2024/03/09 04:08:22;;;;;;;36.53;12.15;;;;;;;5.00;75.84;98349.66;4990861;28;20054;-49
2024/03/09 04:10:50;;;;;;;27.35;9.75;;;;;;;4.99;76.58;98352.25;4986811;28;20057;-47
2024/03/09 04:13:20;;;;;;;39.63;13.45;;;;;;;5.03;76.14;98348.78;4987946;28;20064;-47
2024/03/09 04:15:47;;;;;;;42.72;14.35;;;;;;;5.03;76.05;98353.91;4985843;28;20058;-46
2024/03/09 04:18:14;;;;;;;28.90;9.48;;;;;;;5.02;76.11;98352.22;4984149;28;20085;-46
2024/03/09 04:20:41;;;;;;;37.95;12.30;;;;;;;5.04;75.73;98355.66;4986416;28;20097;-43
2024/03/09 04:23:08;;;;;;;41.10;15.35;;;;;;;5.06;75.47;98353.06;4988864;28;20058;-46
2024/03/09 04:25:38;;;;;;;44.97;12.77;;;;;;;5.04;76.16;98353.06;4985140;28;20068;-44
2024/03/09 04:28:05;;;;;;;38.63;13.75;;;;;;;5.04;76.04;98350.50;4982853;28;20059;-47
2024/03/09 04:30:33;;;;;;;36.72;12.32;;;;;;;5.03;76.75;98353.91;4978887;28;20050;-49
2024/03/09 04:33:04;;;;;;;40.67;12.57;;;;;;;5.04;75.67;98349.66;4987773;28;20053;-45
2024/03/09 04:35:31;;;;;;;42.97;13.82;;;;;;;5.06;76.32;98347.94;4988282;28;20808;-46
2024/03/09 04:37:58;;;;;;;32.30;12.75;;;;;;;5.05;76.51;98356.47;4987755;28;20057;-41
2024/03/09 04:40:25;;;;;;;40.15;13.40;;;;;;;5.08;75.64;98346.19;4983976;28;20054;-45
2024/03/09 04:42:51;;;;;;;34.95;12.77;;;;;;;5.10;76.88;98350.44;4980098;28;20128;-45
2024/03/09 04:45:19;;;;;;;41.08;13.90;;;;;;;5.10;76.03;98350.44;4982434;28;20051;-43
2024/03/09 04:47:46;;;;;;;41.63;13.90;;;;;;;5.12;76.06;98341.03;4980234;28;20055;-44
2024/03/09 04:50:17;;;;;;;42.83;14.07;;;;;;;5.14;76.77;98336.72;4989610;28;20050;-44
2024/03/09 04:52:47;;;;;;;46.17;15.07;;;;;;;5.13;76.35;98337.59;4974764;28;20078;-43
2024/03/09 04:55:18;;;;;;;40.92;13.75;;;;;;;5.16;75.88;98335.88;4981131;28;20053;-45
2024/03/09 04:57:45;;;;;;;34.13;11.65;;;;;;;5.16;76.95;98333.31;4992592;28;20042;-46
2024/03/09 05:00:15;;;;;;;43.63;14.18;;;;;;;5.19;76.90;98328.13;4982446;28;20475;-44
2024/03/09 05:02:44;;;;;;;45.83;13.10;;;;;;;5.22;75.65;98328.09;4982649;28;20058;-49
2024/03/09 05:05:13;;;;;;;36.88;13.95;;;;;;;5.21;75.97;98324.72;4983656;28;20050;-45
2024/03/09 05:07:43;;;;;;;36.22;12.52;;;;;;;5.22;76.60;98333.25;4983651;28;20476;-43
2024/03/09 05:10:14;;;;;;;40.22;13.85;;;;;;;5.24;75.99;98331.53;4982114;28;20508;-43
2024/03/09 05:12:41;;;;;;;26.83;9.15;;;;;;;5.22;76.02;98325.53;4980093;28;20055;-43
2024/03/09 05:15:08;;;;;;;35.60;11.93;;;;;;;5.25;77.28;98328.09;4983627;28;20054;-46
2024/03/09 05:17:34;;;;;;;37.08;13.38;;;;;;;5.23;76.95;98320.41;4985711;28;20057;-41
2024/03/09 05:20:11;;;;;;;30.23;11.32;;;;;;;5.23;77.04;98322.09;4982994;28;20132;-44
2024/03/09 05:22:39;;;;;;;31.17;12.05;;;;;;;5.27;76.52;98327.19;4987547;28;20045;-46
2024/03/09 05:25:13;;;;;;;39.15;14.25;;;;;;;5.29;76.84;98319.50;4985435;28;20058;-45
2024/03/09 05:27:44;;;;;;;37.30;12.10;;;;;;;5.30;75.95;98310.91;4985189;28;20540;-46
2024/03/09 05:30:15;;;;;;;41.83;14.45;;;;;;;5.31;76.75;98304.94;4984387;28;20082;-43
2024/03/09 05:32:42;;;;;;;;;;;;;;;5.29;76.57;98314.34;4986217;28;20064;-47
2024/03/09 05:35:13;;;;;;;35.30;13.15;;;;;;;5.34;76.49;98311.75;4984763;28;19930;-45
2024/03/09 05:37:40;;;;;;;44.95;14.68;;;;;;;5.36;76.98;98305.72;4986502;28;20086;-46
2024/03/09 05:40:09;;;;;;;45.30;14.70;;;;;;;5.38;76.08;98298.84;4984973;28;20079;-49
2024/03/09 05:42:37;;;;;;;41.70;14.07;;;;;;;5.40;76.37;98304.84;4980891;28;20046;-49
2024/03/09 05:45:09;;;;;;;41.22;13.88;;;;;;;5.39;76.10;98290.31;4982037;28;20054;-47
2024/03/09 05:47:36;;;;;;;39.60;14.00;;;;;;;5.43;76.96;98298.00;4983800;28;20476;-48
2024/03/09 05:50:03;;;;;;;37.15;14.30;;;;;;;5.45;76.83;98299.66;4982002;28;20141;-46
2024/03/09 05:52:30;;;;;;;39.88;14.50;;;;;;;5.46;76.49;98285.09;4987110;28;20050;-45
2024/03/09 05:54:57;;;;;;;45.83;15.07;;;;;;;5.48;75.94;98291.94;4988257;28;20056;-43
2024/03/09 05:57:23;;;;;;;41.30;13.90;;;;;;;5.50;76.61;98291.88;4983114;28;20053;-48
2024/03/09 05:59:50;;;;;;;33.67;12.70;;;;;;;5.49;76.02;98285.94;4986584;28;20138;-48
2024/03/09 06:02:17;;;;;;;34.88;12.88;;;;;;;5.48;76.37;98289.38;4980406;28;20460;-43
2024/03/09 06:04:44;;;;;;;39.17;12.50;;;;;;;5.50;75.89;98286.75;4982520;28;20057;-49
2024/03/09 06:07:11;;;;;;;44.50;15.25;;;;;;;5.51;77.06;98283.34;4977166;28;20059;-45
2024/03/09 06:09:37;;;;;;;45.67;12.93;;;;;;;5.51;76.58;98286.75;4990425;28;20050;-49
2024/03/09 06:12:04;;;;;;;39.42;13.00;;;;;;;5.52;76.41;98287.59;4983404;28;20058;-46
2024/03/09 06:14:31;;;;;;;36.65;14.45;;;;;;;5.52;76.52;98279.91;4988309;28;20062;-43
2024/03/09 06:16:58;;;;;;;41.38;13.60;;;;;;;5.52;76.90;98290.19;4987332;28;20079;-45
2024/03/09 06:19:25;;;;;;;43.67;14.75;;;;;;;5.52;77.11;98277.34;4983724;28;20086;-47
2024/03/09 06:21:52;;;;;;;37.50;13.25;;;;;;;5.54;76.63;98278.16;4986327;28;20049;-46
2024/03/09 06:24:19;;;;;;;46.08;13.85;;;;;;;5.55;77.33;98277.31;4983682;28;20058;-45
2024/03/09 06:26:45;;;;;;;44.88;14.13;;;;;;;5.57;76.91;98283.25;4984417;28;20054;-46
2024/03/09 06:29:12;;;;;;;38.53;12.52;;;;;;;5.56;77.81;98281.56;4986171;28;20069;-46
2024/03/09 06:31:39;;;;;;;40.60;13.00;;;;;;;5.58;77.08;98274.72;4987294;28;20051;-46
2024/03/09 06:34:07;;;;;;;34.95;13.68;;;;;;;5.60;77.62;98280.66;4983830;28;20082;-43
2024/03/09 06:36:35;;;;;;;44.75;14.32;;;;;;;5.61;77.15;98279.78;4984614;28;20057;-45
2024/03/09 06:39:01;;;;;;;44.70;14.15;;;;;;;5.61;77.62;98281.53;4983308;28;20050;-49
2024/03/09 06:41:30;;;;;;;46.10;13.05;;;;;;;5.61;77.10;98284.94;4986603;28;20046;-48
2024/03/09 06:43:56;;;;;;;36.55;13.27;;;;;;;5.61;77.84;98284.09;4985261;28;20067;-48
2024/03/09 06:46:23;;;;;;;45.28;13.23;;;;;;;5.64;77.31;98279.75;4987083;28;20523;-49
2024/03/09 06:48:51;;;;;;;40.80;14.95;;;;;;;5.64;77.50;98282.31;4990722;28;20070;-45
2024/03/09 06:51:20;;;;;;;38.08;11.18;;;;;;;5.65;77.17;98275.50;4986350;28;20685;-44
2024/03/09 06:53:47;;;;;;;33.30;12.00;;;;;;;5.67;77.65;98278.88;4984177;28;20060;-44
2024/03/09 06:56:14;;;;;;;38.53;13.80;;;;;;;5.69;77.32;98276.28;4983919;28;20054;-45
2024/03/09 06:58:41;;;;;;;38.92;13.80;;;;;;;5.69;77.32;98278.84;4987968;28;20396;-44
2024/03/09 07:01:19;;;;;;;31.38;10.38;;;;;;;5.68;76.99;98278.03;4978444;28;20065;-49
2024/03/09 07:03:46;;;;;;;37.25;13.02;;;;;;;5.71;77.76;98274.56;4982194;28;20137;-43
2024/03/09 07:06:13;;;;;;;43.20;12.93;;;;;;;5.72;78.04;98276.25;4983806;28;20792;-46
2024/03/09 07:08:42;;;;;;;32.28;11.45;;;;;;;5.72;78.32;98274.56;4982135;28;20062;-45
2024/03/09 07:11:09;;;;;;;42.97;12.13;;;;;;;5.72;78.20;98271.13;4980129;28;20056;-45
2024/03/09 07:13:36;;;;;;;32.58;12.68;;;;;;;5.74;77.12;98279.69;4981352;28;20089;-48
2024/03/09 07:16:04;;;;;;;41.08;13.27;;;;;;;5.74;77.63;98280.50;4978894;28;20827;-47
2024/03/09 07:18:34;;;;;;;35.53;13.32;;;;;;;5.74;78.58;98280.50;4976852;28;20042;-47
2024/03/09 07:21:00;;;;;;;40.22;14.23;;;;;;;5.78;77.48;98291.63;4977867;28;20055;-47
2024/03/09 07:23:28;;;;;;;37.38;11.95;;;;;;;5.75;78.00;98281.38;4982927;28;20153;-46
2024/03/09 07:25:55;;;;;;;33.03;10.50;;;;;;;5.79;78.75;98276.19;4989076;28;20078;-51
2024/03/09 07:28:22;;;;;;;31.20;11.52;;;;;;;5.86;78.93;98283.81;4983464;28;20512;-46
2024/03/09 07:30:50;;;;;;;33.53;11.60;;;;;;;5.94;79.16;98276.00;4988823;28;20085;-47
2024/03/09 07:33:17;;;;;;;33.75;12.13;;;;;;;6.02;79.01;98284.47;4987360;28;20042;-45
2024/03/09 07:35:46;;;;;;;39.90;13.13;;;;;;;6.11;78.08;98283.53;4988556;28;20136;-45
2024/03/09 07:38:13;;;;;;;40.13;12.10;;;;;;;6.19;77.16;98283.44;4990618;28;20084;-46
2024/03/09 07:40:43;;;;;;;28.08;10.10;;;;;;;6.23;78.81;98277.38;4987563;28;20077;-44
2024/03/09 07:43:13;;;;;;;37.17;11.30;;;;;;;6.27;78.08;98281.59;4981567;28;20666;-45
2024/03/09 07:45:40;;;;;;;32.78;11.75;;;;;;;6.30;77.16;98287.56;4987438;28;20054;-44
2024/03/09 07:48:07;;;;;;;34.47;12.13;;;;;;;6.38;77.40;98281.47;4988843;28;20061;-46
2024/03/09 07:50:34;;;;;;;35.28;12.20;;;;;;;6.40;76.99;98285.72;4992389;28;20050;-48
2024/03/09 07:53:00;;;;;;;36.05;11.57;;;;;;;6.40;78.38;98285.72;4987654;28;20050;-51
2024/03/09 07:55:28;;;;;;;34.25;10.35;;;;;;;6.41;76.72;98282.25;4987463;28;20069;-45
2024/03/09 07:57:58;;;;;;;36.65;12.43;;;;;;;6.45;78.00;98284.78;4990171;28;20056;-46
2024/03/09 08:00:44;;;;;;;33.15;11.00;;;;;;;6.46;77.55;98289.06;4986612;28;20053;-47
2024/03/09 08:03:12;;;;;;;35.03;12.18;;;;;;;6.48;76.42;98293.31;4982990;28;20053;-44
2024/03/09 08:05:40;;;;;;;30.75;10.77;;;;;;;6.49;77.53;98294.16;4986737;28;20098;-45
2024/03/09 08:08:09;;;;;;;36.05;11.27;;;;;;;6.50;77.59;98290.72;4986619;28;20488;-50
2024/03/09 08:10:41;;;;;;;30.05;10.05;;;;;;;6.54;76.79;98293.22;4989134;28;20538;-46
2024/03/09 08:13:10;;;;;;;33.65;11.43;;;;;;;6.56;77.04;98300.94;4986931;28;20054;-48
2024/03/09 08:15:37;;;;;;;23.27;8.85;;;;;;;6.54;78.65;98292.38;4983175;28;20046;-46
2024/03/09 08:18:07;;;;;;;28.35;10.32;;;;;;;6.59;77.15;98285.44;4986035;28;20061;-42
2024/03/09 08:20:34;;;;;;;32.08;10.02;;;;;;;6.63;76.99;98284.53;4989165;28;20447;-43
2024/03/09 08:23:01;;;;;;;21.80;8.48;;;;;;;6.65;78.57;98280.19;4985118;28;20090;-44
2024/03/09 08:25:28;;;;;;;28.90;9.07;;;;;;;6.69;78.51;98275.88;4988117;28;20047;-47
2024/03/09 08:27:55;;;;;;;28.05;9.20;;;;;;;6.74;78.54;98273.19;4987196;28;20536;-42
2024/03/09 08:30:22;;;;;;;24.45;9.25;;;;;;;6.72;77.42;98275.78;4976532;28;20074;-47
2024/03/09 08:32:53;;;;;;;23.42;8.23;;;;;;;6.69;78.30;98276.69;4983182;28;20054;-49
2024/03/09 08:35:21;;;;;;;23.42;8.07;;;;;;;6.77;78.05;98278.31;4987537;28;20453;-49
2024/03/09 08:37:50;;;;;;;22.83;9.38;;;;;;;6.76;78.35;98281.75;4991937;28;20073;-45
2024/03/09 08:40:19;;;;;;;23.88;8.65;;;;;;;6.79;78.35;98284.28;4986241;28;20418;-46
2024/03/09 08:42:48;;;;;;;19.20;8.43;;;;;;;6.86;77.70;98283.28;4977740;28;20053;-47
2024/03/09 08:45:15;;;;;;;20.27;8.27;;;;;;;7.06;78.80;98279.56;4987003;28;20046;-45
2024/03/09 08:47:42;;;;;;;24.50;8.27;;;;;;;7.69;78.28;98275.00;4993439;28;20494;-43
2024/03/09 08:50:10;;;;;;;18.27;7.70;;;;;;;8.78;76.12;98291.63;4984925;28;20054;-45
2024/03/09 08:52:38;;;;;;;16.90;6.25;;;;;;;9.80;74.82;98283.00;4984415;28;20065;-48
2024/03/09 08:55:10;;;;;;;20.48;9.63;;;;;;;10.36;72.29;98276.22;4982366;28;20050;-48
2024/03/09 08:57:39;;;;;;;17.88;7.70;;;;;;;10.93;70.36;98276.19;4988038;28;20116;-44
2024/03/09 09:00:07;;;;;;;19.30;7.15;;;;;;;11.55;69.04;98278.44;4987587;28;20633;-44
2024/03/09 09:02:37;;;;;;;17.95;6.93;;;;;;;11.59;66.28;98274.00;4984373;28;20050;-46
2024/03/09 09:05:11;;;;;;;22.85;7.57;;;;;;;11.55;66.22;98273.25;4985334;28;20057;-49
2024/03/09 09:07:40;;;;;;;18.08;6.95;;;;;;;11.64;66.62;98279.00;4985067;28;20046;-46
2024/03/09 09:10:11;;;;;;;13.02;5.50;;;;;;;11.80;65.30;98272.38;4984645;28;20054;-45
2024/03/09 09:12:39;;;;;;;13.63;5.88;;;;;;;12.22;64.60;98290.78;4977855;28;20057;-45
2024/03/09 09:15:08;;;;;;;12.32;5.57;;;;;;;11.77;63.36;98275.09;4983261;28;20443;-47
2024/03/09 09:17:35;;;;;;;10.35;5.05;;;;;;;11.55;63.29;98270.66;4985335;28;20459;-49
2024/03/09 09:20:04;;;;;;;11.00;5.20;;;;;;;11.02;63.75;98287.16;4979610;28;20113;-48
2024/03/09 09:22:31;;;;;;;6.68;3.80;;;;;;;10.80;65.85;98280.94;4990384;28;20427;-44
2024/03/09 09:24:58;;;;;;;8.00;3.72;;;;;;;10.60;66.04;98293.66;4984309;28;20055;-46
2024/03/09 09:27:26;;;;;;;8.25;4.53;;;;;;;10.75;66.52;98293.19;4980387;28;20054;-44
2024/03/09 09:29:53;;;;;;;8.13;3.28;;;;;;;10.69;65.98;98277.84;4980629;28;20042;-47
2024/03/09 09:32:23;;;;;;;7.47;3.85;;;;;;;11.26;65.64;98282.91;4986210;28;20065;-47
2024/03/09 09:34:51;;;;;;;7.75;3.17;;;;;;;12.05;64.73;98281.84;4978176;28;20058;-49
2024/03/09 09:37:18;;;;;;;6.45;2.33;;;;;;;12.60;63.29;98278.06;4982825;28;20062;-43
2024/03/09 09:39:46;;;;;;;5.45;2.38;;;;;;;12.53;61.64;98268.81;4985133;28;20065;-46
2024/03/09 09:42:13;;;;;;;4.15;2.67;;;;;;;12.68;60.91;98282.13;4986072;28;20051;-44
2024/03/09 09:44:41;;;;;;;5.57;3.40;;;;;;;13.02;59.49;98278.16;4981767;28;20136;-47
2024/03/09 09:47:10;;;;;;;6.15;2.67;;;;;;;13.20;58.60;98278.28;4989901;28;20416;-46
2024/03/09 09:49:39;;;;;;;4.30;2.20;;;;;;;13.26;58.25;98284.97;4979011;28;20502;-43
2024/03/09 09:52:07;;;;;;;3.65;1.77;;;;;;;13.43;57.33;98285.13;4974841;28;20487;-48
2024/03/09 09:54:34;;;;;;;2.97;1.77;;;;;;;13.72;57.34;98277.00;4980024;28;20172;-50
2024/03/09 09:57:00;;;;;;;5.68;2.45;;;;;;;14.08;58.19;98267.59;4976281;28;20050;-48
2024/03/09 09:59:30;;;;;;;4.10;2.05;;;;;;;14.22;55.13;98269.56;4974179;28;20058;-47
2024/03/09 10:01:57;;;;;;;;;;;;;;;14.12;53.79;98275.19;4977530;28;20054;-44
2024/03/09 10:04:26;;;;;;;5.38;1.85;;;;;;;14.49;55.66;98266.59;4978894;28;19961;-48
2024/03/09 10:07:06;;;;;;;3.63;2.17;;;;;;;14.67;54.19;98262.25;4974433;28;20087;-49
2024/03/09 10:09:33;;;;;;;4.72;2.33;;;;;;;14.74;54.29;98255.81;4975470;28;20516;-46
2024/03/09 10:12:04;;;;;;;4.05;1.90;;;;;;;14.85;55.02;98263.13;4974981;28;20104;-49
2024/03/09 10:14:31;;;;;;;4.68;1.92;;;;;;;15.31;54.61;98261.75;4975583;28;20054;-48
2024/03/09 10:17:09;;;;;;;5.45;1.88;;;;;;;15.19;53.21;98254.56;4976228;28;20054;-47
2024/03/09 10:19:37;;;;;;;4.78;2.25;;;;;;;15.38;53.77;98255.31;4976496;28;20513;-44
2024/03/09 10:22:04;;;;;;;3.25;1.55;;;;;;;14.78;53.34;98251.31;4977780;28;20522;-46
2024/03/09 10:24:31;;;;;;;4.05;1.65;;;;;;;14.11;53.28;98246.59;4981747;28;20054;-50
2024/03/09 10:27:06;;;;;;;3.80;2.67;;;;;;;13.48;54.96;98254.56;4976468;28;20236;-46
2024/03/09 10:29:33;;;;;;;5.68;2.13;;;;;;;13.23;55.34;98240.00;4971965;28;20074;-49
2024/03/09 10:32:00;;;;;;;5.35;2.33;;;;;;;13.27;56.33;98240.72;4976953;28;20058;-46
2024/03/09 10:34:30;;;;;;;4.53;1.95;;;;;;;13.23;56.20;98249.56;4977504;28;20049;-47
2024/03/09 10:37:00;;;;;;;4.90;2.03;;;;;;;12.82;56.45;98246.03;4979388;28;20581;-49
2024/03/09 10:39:27;;;;;;;5.18;2.45;;;;;;;12.83;57.57;98241.66;4976286;28;20070;-48
2024/03/09 10:41:54;;;;;;;6.80;2.83;;;;;;;12.87;57.53;98242.41;4974339;28;20054;-50
2024/03/09 10:44:23;;;;;;;4.90;2.22;;;;;;;12.76;57.54;98238.47;4973383;28;20082;-48
2024/03/09 10:46:53;;;;;;;5.45;2.40;;;;;;;12.73;58.40;98241.19;4972713;28;20130;-47
2024/03/09 10:49:20;;;;;;;4.82;2.40;;;;;;;12.88;58.14;98238.88;4975809;28;20141;-48
2024/03/09 10:51:51;;;;;;;6.93;2.50;;;;;;;13.53;59.42;98225.78;4973499;28;20054;-45
2024/03/09 10:54:30;;;;;;;5.97;2.35;;;;;;;13.74;57.04;98226.56;4973807;28;20061;-48
2024/03/09 10:57:00;;;;;;;6.22;3.08;;;;;;;14.01;57.28;98230.56;4991672;28;20136;-47
2024/03/09 10:59:27;;;;;;;6.82;2.75;;;;;;;14.07;56.83;98214.69;4983182;28;20097;-49
2024/03/09 11:01:55;;;;;;;6.30;2.63;;;;;;;14.19;56.36;98222.84;4985954;28;20410;-50
2024/03/09 11:04:26;;;;;;;8.60;3.20;;;;;;;14.27;56.02;98225.91;4983030;28;20054;-43
2024/03/09 11:06:55;;;;;;;7.93;2.90;;;;;;;14.09;56.44;98215.44;4993811;28;20221;-47
2024/03/09 11:09:29;;;;;;;6.45;3.10;;;;;;;14.05;55.29;98226.91;4995341;28;20050;-48
2024/03/09 11:11:59;;;;;;;5.88;2.88;;;;;;;14.47;56.16;98213.69;4989118;28;20488;-51
2024/03/09 11:14:26;;;;;;;;;;;;;;;14.96;55.15;98214.84;4993450;28;20046;-48
2024/03/09 11:16:55;;;;;;;7.22;3.15;;;;;;;14.83;54.19;98217.22;4990184;28;19925;-47
2024/03/09 11:19:26;;;;;;;5.45;3.28;;;;;;;14.82;55.31;98205.94;4980447;28;20050;-52
2024/03/09 11:21:53;;;;;;;7.03;3.35;;;;;;;14.99;54.46;98206.84;4989560;28;20058;-51
2024/03/09 11:24:29;;;;;;;7.13;3.40;;;;;;;14.88;54.59;98213.47;4978974;28;20130;-47
2024/03/09 11:26:57;;;;;;;7.20;3.47;;;;;;;15.06;55.22;98213.44;4987334;28;20058;-45
2024/03/09 11:29:28;;;;;;;6.15;3.05;;;;;;;15.37;55.51;98214.47;4988596;28;20068;-45
2024/03/09 11:32:01;;;;;;;5.57;2.60;;;;;;;15.33;53.79;98202.50;4982232;28;20054;-49
2024/03/09 11:34:29;;;;;;;7.35;2.78;;;;;;;15.53;53.95;98200.63;4987016;28;20130;-47
2024/03/09 11:36:57;;;;;;;5.00;2.60;;;;;;;15.63;53.66;98201.81;4985599;28;20129;-48
2024/03/09 11:39:29;;;;;;;7.63;3.30;;;;;;;15.67;54.22;98198.13;4991523;28;20057;-48